ANZ14 YSSY-YMML
Flight info
| Callsign | ANZ14 |
|---|---|
| Flight time | 1h 37m |
| Altitude | 31000 |
| Route | WOL2 WOL H65 LEECE Q29 ML DCT |
| Aircraft | B772/H-SDE2E3FGHIJ5LORVWXY/LB1D1 |
Departure
| Time | 2026-04-26 10:16 |
|---|---|
| Airport | Sydney Kingsford Smith International Airport (YSSY) |
Arrival
| Time | 2026-04-26 11:54 |
|---|---|
| Airport | Melbourne Airport (YMML) |
| Time | Latitude | Longitude | Altitude | Speed | Heading |
|---|---|---|---|---|---|
| 2026-04-26 09:42 | -33.93828 | 151.16622 | 25 ft | 0 kts | 252° |
| 2026-04-26 09:56 | -33.93825 | 151.16633 | 30 ft | 3 kts | 252° |
| 2026-04-26 09:56 | -33.93819 | 151.16654 | 31 ft | 3 kts | 252° |
| 2026-04-26 09:56 | -33.93814 | 151.16676 | 31 ft | 3 kts | 237° |
| 2026-04-26 09:57 | -33.93799 | 151.16692 | 31 ft | 3 kts | 192° |
| 2026-04-26 09:57 | -33.93788 | 151.16694 | 31 ft | 0 kts | 170° |
| 2026-04-26 09:58 | -33.93790 | 151.16694 | 31 ft | 0 kts | 170° |
| 2026-04-26 10:02 | -33.93819 | 151.16704 | 28 ft | 17 kts | 160° |
| 2026-04-26 10:03 | -33.93894 | 151.16750 | 31 ft | 8 kts | 153° |
| 2026-04-26 10:03 | -33.93965 | 151.16789 | 31 ft | 2 kts | 166° |
| 2026-04-26 10:03 | -33.93968 | 151.16790 | 31 ft | 0 kts | 166° |
| 2026-04-26 10:04 | -33.93989 | 151.16796 | 30 ft | 13 kts | 166° |
| 2026-04-26 10:04 | -33.94046 | 151.16872 | 30 ft | 14 kts | 93° |
| 2026-04-26 10:04 | -33.94024 | 151.16996 | 28 ft | 16 kts | 74° |
| 2026-04-26 10:04 | -33.94005 | 151.17074 | 28 ft | 0 kts | 74° |
| 2026-04-26 10:05 | -33.93986 | 151.17176 | 28 ft | 23 kts | 90° |
| 2026-04-26 10:06 | -33.94038 | 151.17239 | 29 ft | 0 kts | 167° |
| 2026-04-26 10:06 | -33.94051 | 151.17243 | 28 ft | 10 kts | 167° |
| 2026-04-26 10:06 | -33.94207 | 151.17284 | 27 ft | 25 kts | 167° |
| 2026-04-26 10:06 | -33.94407 | 151.17337 | 31 ft | 32 kts | 168° |
| 2026-04-26 10:07 | -33.94574 | 151.17377 | 31 ft | 25 kts | 168° |
| 2026-04-26 10:07 | -33.94739 | 151.17420 | 29 ft | 25 kts | 167° |
| 2026-04-26 10:07 | -33.94918 | 151.17471 | 28 ft | 27 kts | 166° |
| 2026-04-26 10:07 | -33.95105 | 151.17523 | 27 ft | 27 kts | 167° |
| 2026-04-26 10:08 | -33.95292 | 151.17569 | 27 ft | 27 kts | 168° |
| 2026-04-26 10:08 | -33.95463 | 151.17611 | 29 ft | 25 kts | 168° |
| 2026-04-26 10:08 | -33.95630 | 151.17655 | 28 ft | 25 kts | 168° |
| 2026-04-26 10:08 | -33.95799 | 151.17698 | 28 ft | 25 kts | 168° |
| 2026-04-26 10:09 | -33.95964 | 151.17742 | 27 ft | 25 kts | 168° |
| 2026-04-26 10:09 | -33.96133 | 151.17785 | 29 ft | 25 kts | 168° |
| 2026-04-26 10:09 | -33.96301 | 151.17829 | 27 ft | 25 kts | 167° |
| 2026-04-26 10:09 | -33.96393 | 151.17855 | 28 ft | 5 kts | 162° |
| 2026-04-26 10:10 | -33.96422 | 151.17879 | 28 ft | 5 kts | 136° |
| 2026-04-26 10:10 | -33.96432 | 151.17903 | 28 ft | 0 kts | 108° |
| 2026-04-26 10:10 | -33.96436 | 151.17919 | 28 ft | 1 kts | 101° |
| 2026-04-26 10:10 | -33.96436 | 151.17921 | 28 ft | 0 kts | 98° |
| 2026-04-26 10:14 | -33.96427 | 151.17995 | 28 ft | 17 kts | 71° |
| 2026-04-26 10:14 | -33.96337 | 151.18040 | 28 ft | 0 kts | 345° |
| 2026-04-26 10:15 | -33.96299 | 151.18028 | 28 ft | 20 kts | 345° |
| 2026-04-26 10:15 | -33.95900 | 151.17924 | 26 ft | 98 kts | 348° |
| 2026-04-26 10:16 | -33.94994 | 151.17702 | 28 ft | 164 kts | 349° |
| 2026-04-26 10:16 | -33.93765 | 151.17420 | 328 ft | 191 kts | 351° |
| 2026-04-26 10:16 | -33.92422 | 151.17081 | 949 ft | 200 kts | 348° |
| 2026-04-26 10:16 | -33.91097 | 151.16448 | 1512 ft | 214 kts | 320° |
| 2026-04-26 10:17 | -33.90305 | 151.14919 | 2033 ft | 231 kts | 297° |
| 2026-04-26 10:17 | -33.89631 | 151.13093 | 2566 ft | 242 kts | 300° |
| 2026-04-26 10:17 | -33.88812 | 151.11299 | 3378 ft | 244 kts | 302° |
| 2026-04-26 10:17 | -33.87941 | 151.09554 | 4100 ft | 250 kts | 302° |
| 2026-04-26 10:18 | -33.87011 | 151.07766 | 4870 ft | 253 kts | 302° |
| 2026-04-26 10:18 | -33.86048 | 151.05953 | 5559 ft | 259 kts | 302° |
| 2026-04-26 10:18 | -33.85064 | 151.04114 | 6271 ft | 263 kts | 302° |
| 2026-04-26 10:18 | -33.84065 | 151.02246 | 6863 ft | 270 kts | 300° |
| 2026-04-26 10:19 | -33.83461 | 151.00118 | 7371 ft | 273 kts | 272° |
| 2026-04-26 10:19 | -33.83840 | 150.97900 | 8009 ft | 273 kts | 242° |
| 2026-04-26 10:19 | -33.85067 | 150.96173 | 8721 ft | 274 kts | 215° |
| 2026-04-26 10:19 | -33.86805 | 150.95267 | 9317 ft | 279 kts | 189° |
| 2026-04-26 10:20 | -33.88740 | 150.95300 | 9968 ft | 279 kts | 169° |
| 2026-04-26 10:20 | -33.90005 | 150.95605 | 10365 ft | 282 kts | 167° |
| 2026-04-26 10:20 | -33.92604 | 150.96237 | 11213 ft | 286 kts | 168° |
| 2026-04-26 10:20 | -33.94595 | 150.96706 | 11838 ft | 296 kts | 168° |
| 2026-04-26 10:21 | -33.96662 | 150.97185 | 12146 ft | 319 kts | 168° |
| 2026-04-26 10:21 | -33.98949 | 150.97421 | 12320 ft | 345 kts | 183° |
| 2026-04-26 10:21 | -34.01414 | 150.96988 | 12546 ft | 372 kts | 192° |
| 2026-04-26 10:21 | -34.03972 | 150.96201 | 13165 ft | 384 kts | 195° |
| 2026-04-26 10:22 | -34.06574 | 150.95297 | 13980 ft | 392 kts | 196° |
| 2026-04-26 10:22 | -34.09211 | 150.94371 | 14820 ft | 396 kts | 195° |
| 2026-04-26 10:22 | -34.11877 | 150.93450 | 15640 ft | 400 kts | 195° |
| 2026-04-26 10:22 | -34.14583 | 150.92538 | 16394 ft | 407 kts | 195° |
| 2026-04-26 10:23 | -34.17305 | 150.91638 | 17165 ft | 412 kts | 194° |
| 2026-04-26 10:23 | -34.20089 | 150.90728 | 17988 ft | 416 kts | 194° |
| 2026-04-26 10:23 | -34.22909 | 150.89809 | 18690 ft | 422 kts | 194° |
| 2026-04-26 10:23 | -34.25755 | 150.88884 | 19422 ft | 425 kts | 194° |
| 2026-04-26 10:24 | -34.27667 | 150.88263 | 19825 ft | 429 kts | 194° |
| 2026-04-26 10:24 | -34.31529 | 150.87015 | 20700 ft | 434 kts | 194° |
| 2026-04-26 10:24 | -34.33473 | 150.86385 | 21209 ft | 436 kts | 194° |
| 2026-04-26 10:24 | -34.36422 | 150.85423 | 21865 ft | 440 kts | 194° |
| 2026-04-26 10:25 | -34.40389 | 150.84131 | 22713 ft | 446 kts | 194° |
| 2026-04-26 10:25 | -34.42417 | 150.83471 | 23170 ft | 449 kts | 194° |
| 2026-04-26 10:25 | -34.45448 | 150.82481 | 23821 ft | 453 kts | 194° |
| 2026-04-26 10:25 | -34.48468 | 150.81497 | 24344 ft | 457 kts | 194° |
| 2026-04-26 10:26 | -34.51556 | 150.80490 | 24909 ft | 459 kts | 194° |
| 2026-04-26 10:26 | -34.54570 | 150.79230 | 25332 ft | 461 kts | 207° |
| 2026-04-26 10:26 | -34.57185 | 150.76947 | 25780 ft | 466 kts | 225° |
| 2026-04-26 10:26 | -34.59158 | 150.73833 | 26283 ft | 464 kts | 236° |
| 2026-04-26 10:27 | -34.61003 | 150.70561 | 26637 ft | 472 kts | 234° |
| 2026-04-26 10:27 | -34.62895 | 150.67329 | 27203 ft | 474 kts | 234° |
| 2026-04-26 10:27 | -34.64831 | 150.64086 | 27818 ft | 474 kts | 233° |
| 2026-04-26 10:27 | -34.66788 | 150.60831 | 28359 ft | 477 kts | 233° |
| 2026-04-26 10:28 | -34.68736 | 150.57598 | 28869 ft | 480 kts | 233° |
| 2026-04-26 10:28 | -34.70708 | 150.54324 | 29459 ft | 479 kts | 233° |
| 2026-04-26 10:28 | -34.72668 | 150.51061 | 30345 ft | 474 kts | 233° |
| 2026-04-26 10:28 | -34.74609 | 150.47822 | 31009 ft | 470 kts | 233° |
| 2026-04-26 10:29 | -34.76534 | 150.44606 | 31601 ft | 468 kts | 233° |
| 2026-04-26 10:29 | -34.78431 | 150.41432 | 32092 ft | 468 kts | 233° |
| 2026-04-26 10:29 | -34.80337 | 150.38239 | 32313 ft | 464 kts | 233° |
| 2026-04-26 10:29 | -34.82241 | 150.35050 | 32272 ft | 467 kts | 233° |
| 2026-04-26 10:30 | -34.86071 | 150.28623 | 32285 ft | 469 kts | 233° |
| 2026-04-26 10:30 | -34.89876 | 150.22225 | 32280 ft | 468 kts | 233° |
| 2026-04-26 10:31 | -34.93700 | 150.15785 | 32276 ft | 468 kts | 234° |
| 2026-04-26 10:31 | -34.97498 | 150.09376 | 32280 ft | 467 kts | 234° |
| 2026-04-26 10:32 | -35.01311 | 150.02928 | 32280 ft | 468 kts | 234° |
| 2026-04-26 10:32 | -35.05127 | 149.96467 | 32281 ft | 468 kts | 234° |
| 2026-04-26 10:33 | -35.08916 | 149.90049 | 32285 ft | 468 kts | 234° |
| 2026-04-26 10:33 | -35.12724 | 149.83593 | 32284 ft | 467 kts | 234° |
| 2026-04-26 10:34 | -35.15125 | 149.79515 | 32287 ft | 467 kts | 234° |
| 2026-04-26 10:34 | -35.18477 | 149.73813 | 32284 ft | 467 kts | 234° |
| 2026-04-26 10:35 | -35.22268 | 149.67353 | 32288 ft | 466 kts | 234° |
| 2026-04-26 10:35 | -35.26038 | 149.60915 | 32284 ft | 466 kts | 234° |
| 2026-04-26 10:36 | -35.29819 | 149.54448 | 32280 ft | 466 kts | 234° |
| 2026-04-26 10:36 | -35.33567 | 149.48024 | 32278 ft | 465 kts | 234° |
| 2026-04-26 10:37 | -35.37334 | 149.41557 | 32275 ft | 465 kts | 234° |
| 2026-04-26 10:37 | -35.41098 | 149.35083 | 32274 ft | 465 kts | 234° |
| 2026-04-26 10:38 | -35.44839 | 149.28636 | 32273 ft | 465 kts | 234° |
| 2026-04-26 10:38 | -35.48594 | 149.22153 | 32281 ft | 465 kts | 234° |
| 2026-04-26 10:39 | -35.52330 | 149.15691 | 32280 ft | 465 kts | 234° |
| 2026-04-26 10:39 | -35.56076 | 149.09199 | 32298 ft | 465 kts | 234° |
| 2026-04-26 10:40 | -35.59800 | 149.02735 | 32327 ft | 465 kts | 234° |
| 2026-04-26 10:40 | -35.63543 | 148.96225 | 32324 ft | 465 kts | 234° |
| 2026-04-26 10:41 | -35.67255 | 148.89756 | 32346 ft | 465 kts | 234° |
| 2026-04-26 10:41 | -35.70990 | 148.83234 | 32351 ft | 465 kts | 234° |
| 2026-04-26 10:42 | -35.74724 | 148.76702 | 32351 ft | 465 kts | 234° |
| 2026-04-26 10:42 | -35.78429 | 148.70210 | 32349 ft | 466 kts | 235° |
| 2026-04-26 10:43 | -35.82160 | 148.63658 | 32355 ft | 466 kts | 235° |
| 2026-04-26 10:43 | -35.85886 | 148.57104 | 32357 ft | 466 kts | 235° |
| 2026-04-26 10:44 | -35.89601 | 148.50551 | 32356 ft | 466 kts | 235° |
| 2026-04-26 10:44 | -35.93282 | 148.44009 | 32348 ft | 466 kts | 236° |
| 2026-04-26 10:45 | -35.96956 | 148.37462 | 32351 ft | 465 kts | 236° |
| 2026-04-26 10:45 | -36.00650 | 148.30872 | 32343 ft | 465 kts | 236° |
| 2026-04-26 10:46 | -36.04318 | 148.24314 | 32326 ft | 464 kts | 236° |
| 2026-04-26 10:46 | -36.07993 | 148.17733 | 32334 ft | 464 kts | 236° |
| 2026-04-26 10:47 | -36.11648 | 148.11178 | 32313 ft | 463 kts | 236° |
| 2026-04-26 10:47 | -36.15316 | 148.04608 | 32317 ft | 463 kts | 236° |
| 2026-04-26 10:48 | -36.18964 | 147.98076 | 32314 ft | 462 kts | 236° |
| 2026-04-26 10:48 | -36.22625 | 147.91505 | 32302 ft | 463 kts | 236° |
| 2026-04-26 10:49 | -36.26256 | 147.84970 | 32317 ft | 463 kts | 236° |
| 2026-04-26 10:49 | -36.29917 | 147.78371 | 32304 ft | 463 kts | 236° |
| 2026-04-26 10:50 | -36.32959 | 147.72878 | 32310 ft | 462 kts | 236° |
| 2026-04-26 10:50 | -36.37190 | 147.65214 | 32298 ft | 462 kts | 236° |
| 2026-04-26 10:51 | -36.42622 | 147.55339 | 32301 ft | 462 kts | 237° |
| 2026-04-26 10:52 | -36.46224 | 147.48775 | 32235 ft | 452 kts | 237° |
| 2026-04-26 10:52 | -36.49675 | 147.42476 | 32117 ft | 435 kts | 237° |
| 2026-04-26 10:53 | -36.53019 | 147.36363 | 31956 ft | 420 kts | 237° |
| 2026-04-26 10:53 | -36.56252 | 147.30438 | 31703 ft | 408 kts | 237° |
| 2026-04-26 10:54 | -36.59413 | 147.24635 | 31062 ft | 409 kts | 237° |
| 2026-04-26 10:54 | -36.61014 | 147.21690 | 30661 ft | 411 kts | 237° |
| 2026-04-26 10:54 | -36.62625 | 147.18725 | 30251 ft | 413 kts | 237° |
| 2026-04-26 10:54 | -36.64241 | 147.15750 | 29813 ft | 415 kts | 237° |
| 2026-04-26 10:55 | -36.65859 | 147.12768 | 29412 ft | 416 kts | 237° |
| 2026-04-26 10:55 | -36.67467 | 147.09803 | 29005 ft | 416 kts | 238° |
| 2026-04-26 10:55 | -36.69094 | 147.06801 | 28622 ft | 417 kts | 238° |
| 2026-04-26 10:55 | -36.70171 | 147.04812 | 28328 ft | 418 kts | 238° |
| 2026-04-26 10:56 | -36.72358 | 147.00772 | 27715 ft | 421 kts | 238° |
| 2026-04-26 10:56 | -36.73988 | 146.97762 | 27284 ft | 423 kts | 238° |
| 2026-04-26 10:56 | -36.75642 | 146.94707 | 26832 ft | 424 kts | 238° |
| 2026-04-26 10:56 | -36.77295 | 146.91651 | 26403 ft | 426 kts | 238° |
| 2026-04-26 10:57 | -36.78939 | 146.88606 | 25962 ft | 427 kts | 238° |
| 2026-04-26 10:57 | -36.80615 | 146.85500 | 25548 ft | 429 kts | 238° |
| 2026-04-26 10:57 | -36.82289 | 146.82395 | 25314 ft | 431 kts | 238° |
| 2026-04-26 10:57 | -36.83949 | 146.79311 | 25301 ft | 432 kts | 238° |
| 2026-04-26 10:58 | -36.85626 | 146.76195 | 25303 ft | 431 kts | 238° |
| 2026-04-26 10:58 | -36.87300 | 146.73079 | 25298 ft | 430 kts | 239° |
| 2026-04-26 10:58 | -36.88838 | 146.69908 | 25298 ft | 428 kts | 244° |
| 2026-04-26 10:58 | -36.90195 | 146.66622 | 25277 ft | 421 kts | 245° |
| 2026-04-26 10:59 | -36.91491 | 146.63385 | 25197 ft | 411 kts | 246° |
| 2026-04-26 10:59 | -36.92753 | 146.60214 | 25107 ft | 402 kts | 246° |
| 2026-04-26 10:59 | -36.93976 | 146.57159 | 24960 ft | 394 kts | 246° |
| 2026-04-26 10:59 | -36.95207 | 146.54100 | 24720 ft | 391 kts | 246° |
| 2026-04-26 11:00 | -36.96433 | 146.51065 | 24360 ft | 391 kts | 246° |
| 2026-04-26 11:00 | -36.97670 | 146.48017 | 23993 ft | 391 kts | 246° |
| 2026-04-26 11:00 | -36.98888 | 146.45016 | 23640 ft | 389 kts | 246° |
| 2026-04-26 11:00 | -37.00115 | 146.41994 | 23264 ft | 385 kts | 246° |
| 2026-04-26 11:01 | -37.01312 | 146.39051 | 22818 ft | 383 kts | 246° |
| 2026-04-26 11:01 | -37.02513 | 146.36091 | 22364 ft | 381 kts | 246° |
| 2026-04-26 11:01 | -37.03713 | 146.33132 | 21923 ft | 379 kts | 246° |
| 2026-04-26 11:01 | -37.04898 | 146.30208 | 21570 ft | 374 kts | 246° |
| 2026-04-26 11:02 | -37.06067 | 146.27322 | 21228 ft | 369 kts | 246° |
| 2026-04-26 11:02 | -37.07226 | 146.24456 | 20768 ft | 367 kts | 247° |
| 2026-04-26 11:02 | -37.08379 | 146.21601 | 20284 ft | 367 kts | 247° |
| 2026-04-26 11:02 | -37.09516 | 146.18783 | 19849 ft | 366 kts | 247° |
| 2026-04-26 11:03 | -37.10181 | 146.17135 | 19610 ft | 365 kts | 247° |
| 2026-04-26 11:03 | -37.11326 | 146.14292 | 19197 ft | 363 kts | 248° |
| 2026-04-26 11:03 | -37.11932 | 146.12790 | 18977 ft | 362 kts | 248° |
| 2026-04-26 11:03 | -37.13069 | 146.09964 | 18556 ft | 361 kts | 248° |
| 2026-04-26 11:04 | -37.14186 | 146.07185 | 18058 ft | 359 kts | 248° |
| 2026-04-26 11:04 | -37.15308 | 146.04397 | 17650 ft | 356 kts | 248° |
| 2026-04-26 11:04 | -37.16418 | 146.01632 | 17209 ft | 353 kts | 248° |
| 2026-04-26 11:04 | -37.17511 | 145.98910 | 16791 ft | 350 kts | 248° |
| 2026-04-26 11:05 | -37.18603 | 145.96185 | 16371 ft | 347 kts | 248° |
| 2026-04-26 11:05 | -37.19168 | 145.94770 | 16160 ft | 346 kts | 248° |
| 2026-04-26 11:05 | -37.20247 | 145.92071 | 15756 ft | 343 kts | 248° |
| 2026-04-26 11:05 | -37.21300 | 145.89438 | 15350 ft | 341 kts | 247° |
| 2026-04-26 11:06 | -37.22363 | 145.86777 | 14946 ft | 339 kts | 247° |
| 2026-04-26 11:06 | -37.23076 | 145.84992 | 14677 ft | 337 kts | 247° |
| 2026-04-26 11:06 | -37.24461 | 145.81518 | 14148 ft | 334 kts | 247° |
| 2026-04-26 11:06 | -37.25497 | 145.78917 | 13718 ft | 332 kts | 247° |
| 2026-04-26 11:07 | -37.26529 | 145.76328 | 13331 ft | 328 kts | 247° |
| 2026-04-26 11:07 | -37.27532 | 145.73807 | 12947 ft | 325 kts | 247° |
| 2026-04-26 11:07 | -37.28540 | 145.71272 | 12523 ft | 323 kts | 246° |
| 2026-04-26 11:07 | -37.29544 | 145.68745 | 12079 ft | 321 kts | 246° |
| 2026-04-26 11:08 | -37.30487 | 145.66213 | 11614 ft | 316 kts | 252° |
| 2026-04-26 11:08 | -37.31103 | 145.63565 | 11168 ft | 315 kts | 259° |
| 2026-04-26 11:08 | -37.31582 | 145.60892 | 10814 ft | 312 kts | 259° |
| 2026-04-26 11:08 | -37.32036 | 145.58271 | 10462 ft | 310 kts | 259° |
| 2026-04-26 11:09 | -37.32507 | 145.55623 | 10098 ft | 308 kts | 258° |
| 2026-04-26 11:09 | -37.32980 | 145.53068 | 9969 ft | 289 kts | 258° |
| 2026-04-26 11:09 | -37.33282 | 145.51468 | 9796 ft | 279 kts | 258° |
| 2026-04-26 11:09 | -37.33864 | 145.48411 | 9280 ft | 263 kts | 258° |
| 2026-04-26 11:10 | -37.34285 | 145.46212 | 9002 ft | 250 kts | 258° |
| 2026-04-26 11:10 | -37.34554 | 145.44808 | 9013 ft | 250 kts | 258° |
| 2026-04-26 11:10 | -37.34966 | 145.42661 | 9014 ft | 254 kts | 258° |
| 2026-04-26 11:10 | -37.35381 | 145.40500 | 9007 ft | 253 kts | 258° |
| 2026-04-26 11:11 | -37.35792 | 145.38365 | 8985 ft | 250 kts | 258° |
| 2026-04-26 11:11 | -37.36199 | 145.36245 | 8990 ft | 248 kts | 258° |
| 2026-04-26 11:11 | -37.36605 | 145.34127 | 8924 ft | 251 kts | 258° |
| 2026-04-26 11:11 | -37.37018 | 145.31971 | 8671 ft | 254 kts | 258° |
| 2026-04-26 11:12 | -37.37426 | 145.29838 | 8458 ft | 252 kts | 258° |
| 2026-04-26 11:12 | -37.37833 | 145.27712 | 8244 ft | 249 kts | 258° |
| 2026-04-26 11:12 | -37.38238 | 145.25599 | 7993 ft | 247 kts | 258° |
| 2026-04-26 11:12 | -37.38637 | 145.23507 | 7636 ft | 245 kts | 258° |
| 2026-04-26 11:13 | -37.39036 | 145.21417 | 7220 ft | 245 kts | 258° |
| 2026-04-26 11:13 | -37.39434 | 145.19332 | 6850 ft | 244 kts | 258° |
| 2026-04-26 11:13 | -37.39827 | 145.17270 | 6483 ft | 241 kts | 258° |
| 2026-04-26 11:13 | -37.40212 | 145.15250 | 6013 ft | 237 kts | 258° |
| 2026-04-26 11:14 | -37.40589 | 145.13270 | 5617 ft | 227 kts | 258° |
| 2026-04-26 11:14 | -37.40950 | 145.11369 | 5220 ft | 218 kts | 259° |
| 2026-04-26 11:14 | -37.41297 | 145.09541 | 4990 ft | 211 kts | 259° |
| 2026-04-26 11:14 | -37.41637 | 145.07742 | 4979 ft | 212 kts | 259° |
| 2026-04-26 11:15 | -37.41976 | 145.05949 | 4793 ft | 213 kts | 259° |
| 2026-04-26 11:15 | -37.42319 | 145.04136 | 4511 ft | 212 kts | 260° |
| 2026-04-26 11:15 | -37.42662 | 145.02320 | 4172 ft | 214 kts | 259° |
| 2026-04-26 11:15 | -37.43007 | 145.00499 | 3868 ft | 214 kts | 259° |
| 2026-04-26 11:16 | -37.43348 | 144.98691 | 3563 ft | 214 kts | 259° |
| 2026-04-26 11:16 | -37.43690 | 144.96869 | 3293 ft | 213 kts | 259° |
| 2026-04-26 11:16 | -37.44030 | 144.95060 | 3084 ft | 209 kts | 258° |
| 2026-04-26 11:16 | -37.44331 | 144.93300 | 3025 ft | 201 kts | 262° |
| 2026-04-26 11:17 | -37.44566 | 144.91624 | 2979 ft | 193 kts | 262° |
| 2026-04-26 11:17 | -37.44797 | 144.89960 | 2976 ft | 193 kts | 262° |
| 2026-04-26 11:17 | -37.45029 | 144.88294 | 2986 ft | 193 kts | 262° |
| 2026-04-26 11:17 | -37.45264 | 144.86623 | 2975 ft | 193 kts | 262° |
| 2026-04-26 11:18 | -37.45497 | 144.84964 | 2980 ft | 192 kts | 262° |
| 2026-04-26 11:18 | -37.45728 | 144.83326 | 2981 ft | 191 kts | 262° |
| 2026-04-26 11:18 | -37.46103 | 144.81733 | 2958 ft | 191 kts | 238° |
| 2026-04-26 11:18 | -37.47151 | 144.80746 | 2986 ft | 196 kts | 195° |
| 2026-04-26 11:19 | -37.48527 | 144.80670 | 2996 ft | 200 kts | 176° |
| 2026-04-26 11:19 | -37.49922 | 144.80822 | 2979 ft | 200 kts | 173° |
| 2026-04-26 11:19 | -37.51272 | 144.81040 | 2967 ft | 194 kts | 171° |
| 2026-04-26 11:19 | -37.52556 | 144.81265 | 2928 ft | 176 kts | 171° |
| 2026-04-26 11:20 | -37.53720 | 144.81472 | 2729 ft | 161 kts | 171° |
| 2026-04-26 11:20 | -37.54435 | 144.81599 | 2572 ft | 154 kts | 172° |
| 2026-04-26 11:20 | -37.55823 | 144.81845 | 2313 ft | 149 kts | 171° |
| 2026-04-26 11:20 | -37.56816 | 144.82020 | 2104 ft | 138 kts | 171° |
| 2026-04-26 11:21 | -37.57740 | 144.82184 | 1930 ft | 131 kts | 171° |
| 2026-04-26 11:21 | -37.58651 | 144.82340 | 1751 ft | 133 kts | 172° |
| 2026-04-26 11:21 | -37.59575 | 144.82491 | 1601 ft | 134 kts | 172° |
| 2026-04-26 11:21 | -37.60491 | 144.82650 | 1381 ft | 136 kts | 172° |
| 2026-04-26 11:22 | -37.61425 | 144.82831 | 1147 ft | 136 kts | 174° |
| 2026-04-26 11:22 | -37.62379 | 144.83000 | 1037 ft | 146 kts | 173° |
| 2026-04-26 11:22 | -37.63448 | 144.83169 | 897 ft | 155 kts | 175° |
| 2026-04-26 11:22 | -37.64464 | 144.83340 | 695 ft | 144 kts | 173° |
| 2026-04-26 11:23 | -37.65529 | 144.83524 | 1390 ft | 155 kts | 173° |
| 2026-04-26 11:23 | -37.66573 | 144.83686 | 2322 ft | 166 kts | 173° |
| 2026-04-26 11:23 | -37.67827 | 144.83889 | 2872 ft | 188 kts | 171° |
| 2026-04-26 11:23 | -37.69140 | 144.84142 | 2982 ft | 190 kts | 170° |
| 2026-04-26 11:24 | -37.70445 | 144.84408 | 2994 ft | 193 kts | 171° |
| 2026-04-26 11:24 | -37.71777 | 144.84652 | 2974 ft | 192 kts | 172° |
| 2026-04-26 11:24 | -37.73109 | 144.84890 | 2951 ft | 197 kts | 172° |
| 2026-04-26 11:24 | -37.74642 | 144.85162 | 2996 ft | 236 kts | 172° |
| 2026-04-26 11:25 | -37.76241 | 144.85447 | 2966 ft | 234 kts | 172° |
| 2026-04-26 11:25 | -37.77824 | 144.85909 | 2960 ft | 234 kts | 155° |
| 2026-04-26 11:25 | -37.79072 | 144.87194 | 2977 ft | 234 kts | 127° |
| 2026-04-26 11:25 | -37.80010 | 144.88896 | 2981 ft | 236 kts | 123° |
| 2026-04-26 11:26 | -37.80940 | 144.90596 | 2984 ft | 238 kts | 124° |
| 2026-04-26 11:26 | -37.81840 | 144.92324 | 2962 ft | 232 kts | 116° |
| 2026-04-26 11:26 | -37.82045 | 144.94291 | 3036 ft | 230 kts | 74° |
| 2026-04-26 11:26 | -37.81172 | 144.95938 | 3376 ft | 226 kts | 40° |
| 2026-04-26 11:27 | -37.80011 | 144.97300 | 3693 ft | 230 kts | 44° |
| 2026-04-26 11:27 | -37.78932 | 144.98763 | 4015 ft | 229 kts | 45° |
| 2026-04-26 11:27 | -37.77864 | 145.00252 | 4162 ft | 228 kts | 45° |
| 2026-04-26 11:27 | -37.76796 | 145.01749 | 4274 ft | 229 kts | 45° |
| 2026-04-26 11:28 | -37.75728 | 145.03250 | 4381 ft | 229 kts | 45° |
| 2026-04-26 11:28 | -37.74657 | 145.04757 | 4493 ft | 230 kts | 45° |
| 2026-04-26 11:28 | -37.73600 | 145.06247 | 4608 ft | 231 kts | 45° |
| 2026-04-26 11:28 | -37.72521 | 145.07767 | 4743 ft | 231 kts | 45° |
| 2026-04-26 11:29 | -37.71444 | 145.09285 | 4847 ft | 232 kts | 45° |
| 2026-04-26 11:29 | -37.70365 | 145.10807 | 4912 ft | 233 kts | 45° |
| 2026-04-26 11:29 | -37.69295 | 145.12316 | 4958 ft | 232 kts | 45° |
| 2026-04-26 11:29 | -37.68214 | 145.13841 | 4978 ft | 233 kts | 45° |
| 2026-04-26 11:30 | -37.67133 | 145.15364 | 4975 ft | 232 kts | 45° |
| 2026-04-26 11:30 | -37.66419 | 145.16368 | 4977 ft | 232 kts | 45° |
| 2026-04-26 11:30 | -37.64979 | 145.18397 | 4984 ft | 232 kts | 45° |
| 2026-04-26 11:30 | -37.63912 | 145.19900 | 4993 ft | 232 kts | 45° |
| 2026-04-26 11:31 | -37.62828 | 145.21425 | 4996 ft | 233 kts | 45° |
| 2026-04-26 11:31 | -37.61743 | 145.22953 | 4990 ft | 233 kts | 45° |
| 2026-04-26 11:31 | -37.60663 | 145.24473 | 5070 ft | 226 kts | 45° |
| 2026-04-26 11:31 | -37.59693 | 145.25857 | 5899 ft | 210 kts | 46° |
| 2026-04-26 11:32 | -37.58719 | 145.27296 | 6269 ft | 227 kts | 47° |
| 2026-04-26 11:32 | -37.57682 | 145.28901 | 6684 ft | 241 kts | 49° |
| 2026-04-26 11:32 | -37.56629 | 145.30598 | 7142 ft | 247 kts | 50° |
| 2026-04-26 11:32 | -37.55588 | 145.32324 | 7665 ft | 248 kts | 50° |
| 2026-04-26 11:33 | -37.54590 | 145.34033 | 8063 ft | 240 kts | 51° |
| 2026-04-26 11:33 | -37.53633 | 145.35747 | 7876 ft | 238 kts | 53° |
| 2026-04-26 11:33 | -37.52721 | 145.37494 | 7369 ft | 242 kts | 54° |
| 2026-04-26 11:33 | -37.51822 | 145.39285 | 6822 ft | 242 kts | 56° |
| 2026-04-26 11:34 | -37.50923 | 145.41091 | 6268 ft | 242 kts | 56° |
| 2026-04-26 11:34 | -37.50041 | 145.42896 | 5731 ft | 241 kts | 57° |
| 2026-04-26 11:34 | -37.49186 | 145.44711 | 5222 ft | 240 kts | 57° |
| 2026-04-26 11:34 | -37.48378 | 145.46539 | 4733 ft | 237 kts | 59° |
| 2026-04-26 11:35 | -37.47631 | 145.48347 | 4278 ft | 234 kts | 60° |
| 2026-04-26 11:35 | -37.46833 | 145.50108 | 4236 ft | 234 kts | 50° |
| 2026-04-26 11:35 | -37.45474 | 145.51461 | 4295 ft | 256 kts | 23° |
| 2026-04-26 11:35 | -37.44406 | 145.52016 | 4260 ft | 245 kts | 20° |
| 2026-04-26 11:36 | -37.42389 | 145.53053 | 4309 ft | 232 kts | 21° |
| 2026-04-26 11:36 | -37.40938 | 145.54011 | 4261 ft | 236 kts | 31° |
| 2026-04-26 11:36 | -37.39651 | 145.55199 | 4298 ft | 228 kts | 37° |
| 2026-04-26 11:36 | -37.38468 | 145.56531 | 4289 ft | 228 kts | 42° |
| 2026-04-26 11:37 | -37.37265 | 145.57830 | 4260 ft | 226 kts | 26° |
| 2026-04-26 11:37 | -37.35763 | 145.58074 | 4270 ft | 223 kts | 346° |
| 2026-04-26 11:37 | -37.34418 | 145.57153 | 4216 ft | 218 kts | 322° |
| 2026-04-26 11:37 | -37.33408 | 145.55777 | 4145 ft | 212 kts | 303° |
| 2026-04-26 11:38 | -37.32911 | 145.54095 | 4051 ft | 208 kts | 281° |
| 2026-04-26 11:38 | -37.33059 | 145.52307 | 3904 ft | 207 kts | 258° |
| 2026-04-26 11:38 | -37.33412 | 145.50564 | 3768 ft | 203 kts | 259° |
| 2026-04-26 11:38 | -37.33753 | 145.48839 | 3589 ft | 203 kts | 259° |
| 2026-04-26 11:39 | -37.34093 | 145.47109 | 3378 ft | 204 kts | 259° |
| 2026-04-26 11:39 | -37.34428 | 145.45400 | 3210 ft | 203 kts | 259° |
| 2026-04-26 11:39 | -37.34763 | 145.43681 | 3098 ft | 201 kts | 259° |
| 2026-04-26 11:39 | -37.35097 | 145.41969 | 3061 ft | 203 kts | 260° |
| 2026-04-26 11:40 | -37.35432 | 145.40235 | 3013 ft | 204 kts | 260° |
| 2026-04-26 11:40 | -37.35761 | 145.38517 | 3007 ft | 202 kts | 259° |
| 2026-04-26 11:40 | -37.36088 | 145.36811 | 3005 ft | 204 kts | 259° |
| 2026-04-26 11:40 | -37.36422 | 145.35076 | 3002 ft | 204 kts | 260° |
| 2026-04-26 11:41 | -37.36757 | 145.33335 | 3005 ft | 205 kts | 260° |
| 2026-04-26 11:42 | -37.39055 | 145.21207 | 3171 ft | 201 kts | 259° |
| 2026-04-26 11:43 | -37.39406 | 145.19525 | 3269 ft | 199 kts | 258° |
| 2026-04-26 11:43 | -37.39727 | 145.17842 | 3637 ft | 194 kts | 260° |
| 2026-04-26 11:43 | -37.40061 | 145.16130 | 3943 ft | 213 kts | 259° |
| 2026-04-26 11:43 | -37.40404 | 145.14299 | 3891 ft | 213 kts | 260° |
| 2026-04-26 11:44 | -37.40739 | 145.12519 | 3822 ft | 205 kts | 260° |
| 2026-04-26 11:44 | -37.41063 | 145.10794 | 3699 ft | 199 kts | 260° |
| 2026-04-26 11:44 | -37.41374 | 145.09143 | 3565 ft | 194 kts | 260° |
| 2026-04-26 11:44 | -37.41685 | 145.07491 | 3385 ft | 194 kts | 260° |
| 2026-04-26 11:45 | -37.41997 | 145.05838 | 3191 ft | 194 kts | 260° |
| 2026-04-26 11:45 | -37.42308 | 145.04194 | 3088 ft | 191 kts | 260° |
| 2026-04-26 11:45 | -37.42617 | 145.02555 | 3037 ft | 193 kts | 259° |
| 2026-04-26 11:45 | -37.42926 | 145.00930 | 3006 ft | 193 kts | 259° |
| 2026-04-26 11:46 | -37.43239 | 144.99267 | 3005 ft | 193 kts | 259° |
| 2026-04-26 11:46 | -37.43545 | 144.97641 | 3004 ft | 194 kts | 259° |
| 2026-04-26 11:46 | -37.43855 | 144.95991 | 3001 ft | 194 kts | 259° |
| 2026-04-26 11:46 | -37.44166 | 144.94331 | 2999 ft | 195 kts | 260° |
| 2026-04-26 11:47 | -37.44422 | 144.92655 | 2988 ft | 194 kts | 263° |
| 2026-04-26 11:47 | -37.44653 | 144.90987 | 2999 ft | 193 kts | 262° |
| 2026-04-26 11:47 | -37.44881 | 144.89336 | 3000 ft | 192 kts | 263° |
| 2026-04-26 11:47 | -37.45116 | 144.87666 | 3003 ft | 194 kts | 263° |
| 2026-04-26 11:48 | -37.45352 | 144.85990 | 2996 ft | 193 kts | 262° |
| 2026-04-26 11:48 | -37.45587 | 144.84326 | 2998 ft | 193 kts | 262° |
| 2026-04-26 11:48 | -37.45822 | 144.82685 | 3001 ft | 192 kts | 260° |
| 2026-04-26 11:48 | -37.46461 | 144.81229 | 2985 ft | 193 kts | 220° |
| 2026-04-26 11:49 | -37.47728 | 144.80626 | 3011 ft | 200 kts | 182° |
| 2026-04-26 11:49 | -37.49094 | 144.80713 | 3029 ft | 196 kts | 174° |
| 2026-04-26 11:49 | -37.50380 | 144.80891 | 2982 ft | 177 kts | 172° |
| 2026-04-26 11:49 | -37.51558 | 144.81091 | 2983 ft | 164 kts | 171° |
| 2026-04-26 11:50 | -37.52685 | 144.81290 | 2954 ft | 168 kts | 171° |
| 2026-04-26 11:50 | -37.53858 | 144.81497 | 2732 ft | 169 kts | 172° |
| 2026-04-26 11:50 | -37.55011 | 144.81701 | 2493 ft | 164 kts | 171° |
| 2026-04-26 11:50 | -37.56123 | 144.81898 | 2271 ft | 158 kts | 172° |
| 2026-04-26 11:51 | -37.57195 | 144.82087 | 2071 ft | 154 kts | 172° |
| 2026-04-26 11:51 | -37.58243 | 144.82273 | 1865 ft | 153 kts | 172° |
| 2026-04-26 11:51 | -37.59304 | 144.82460 | 1665 ft | 153 kts | 172° |
| 2026-04-26 11:51 | -37.60360 | 144.82647 | 1444 ft | 154 kts | 172° |
| 2026-04-26 11:52 | -37.61420 | 144.82835 | 1247 ft | 155 kts | 173° |
| 2026-04-26 11:52 | -37.62143 | 144.82963 | 1094 ft | 156 kts | 173° |
| 2026-04-26 11:52 | -37.63586 | 144.83220 | 823 ft | 159 kts | 173° |
| 2026-04-26 11:52 | -37.64691 | 144.83396 | 614 ft | 160 kts | 174° |
| 2026-04-26 11:53 | -37.65795 | 144.83590 | 429 ft | 160 kts | 171° |
| 2026-04-26 11:53 | -37.66797 | 144.83768 | 392 ft | 114 kts | 171° |
| 2026-04-26 11:53 | -37.67444 | 144.83884 | 372 ft | 80 kts | 172° |
| 2026-04-26 11:54 | -37.67866 | 144.84049 | 365 ft | 0 kts | 109° |
| 2026-04-26 11:54 | -37.67866 | 144.84050 | 356 ft | 1 kts | 109° |
| 2026-04-26 11:54 | -37.67870 | 144.84062 | 364 ft | 2 kts | 109° |
| 2026-04-26 11:55 | -37.67871 | 144.84078 | 363 ft | 3 kts | 97° |
| 2026-04-26 11:55 | -37.67872 | 144.84131 | 363 ft | 14 kts | 91° |
| 2026-04-26 11:55 | -37.67798 | 144.84428 | 363 ft | 38 kts | 38° |